Time;durP1;ratioP1;P1;durP2;ratioP2;P2;SDS_P1;SDS_P2;PMS_P1;PMS_P2;Temp;Humidity;BMP_temperature;BMP_pressure;BME280_temperature;BME280_humidity;BME280_pressure;Samples;Min_cycle;Max_cycle;Signal;HPM_P1;HPM_P2
2024/04/07 00:01:31;;;;;;;15.50;2.92;;;10.40;99.90;;;;;;4986456;28;20038;-49
2024/04/07 00:03:58;;;;;;;18.35;3.45;;;10.40;99.90;;;;;;4986126;28;20037;-49
2024/04/07 00:06:24;;;;;;;10.30;2.10;;;10.40;99.90;;;;;;4986254;28;20026;-48
2024/04/07 00:08:50;;;;;;;10.57;2.53;;;9.70;99.90;;;;;;5001887;28;20039;-46
2024/04/07 00:11:16;;;;;;;10.02;1.85;;;9.70;99.90;;;;;;4985921;28;20038;-49
2024/04/07 00:13:42;;;;;;;13.43;2.38;;;9.60;99.90;;;;;;4986234;28;20026;-50
2024/04/07 00:16:07;;;;;;;13.25;2.45;;;9.60;99.90;;;;;;5001437;28;20048;-48
2024/04/07 00:18:34;;;;;;;11.65;2.53;;;9.50;99.90;;;;;;4986382;28;20034;-49
2024/04/07 00:21:03;;;;;;;12.25;2.65;;;9.40;99.90;;;;;;4986469;28;20035;-48
2024/04/07 00:23:29;;;;;;;16.08;2.70;;;9.30;99.90;;;;;;4986293;28;20131;-49
2024/04/07 00:25:55;;;;;;;18.17;3.17;;;9.30;99.90;;;;;;4986214;28;20022;-48
2024/04/07 00:28:21;;;;;;;14.00;2.60;;;9.30;99.90;;;;;;4986111;28;20030;-49
2024/04/07 00:30:47;;;;;;;18.35;3.10;;;9.30;99.90;;;;;;5001440;28;20025;-49
2024/04/07 00:33:13;;;;;;;14.25;2.72;;;9.30;99.90;;;;;;4986287;28;20034;-50
2024/04/07 00:35:38;;;;;;;24.75;5.05;;;9.40;99.90;;;;;;4986299;28;20184;-49
2024/04/07 00:38:04;;;;;;;22.02;3.38;;;9.40;99.90;;;;;;5001307;28;20038;-49
2024/04/07 00:40:30;;;;;;;22.13;4.22;;;9.50;99.90;;;;;;4985642;28;20031;-49
2024/04/07 00:42:55;;;;;;;17.30;3.33;;;9.50;99.90;;;;;;4986155;28;20045;-47
2024/04/07 00:45:21;;;;;;;16.35;2.95;;;9.70;99.90;;;;;;4986200;28;20019;-50
2024/04/07 00:47:47;;;;;;;26.75;3.80;;;9.80;99.90;;;;;;5001126;28;20086;-46
2024/04/07 00:50:14;;;;;;;18.63;3.30;;;9.90;99.90;;;;;;5001152;28;20355;-50
2024/04/07 00:52:40;;;;;;;22.35;3.80;;;10.00;99.90;;;;;;5001687;28;20033;-47
2024/04/07 00:55:07;;;;;;;19.83;3.90;;;10.10;99.90;;;;;;5004645;28;20023;-49
2024/04/07 00:57:33;;;;;;;18.33;3.75;;;10.10;99.90;;;;;;5004368;28;20109;-49
2024/04/07 00:59:58;;;;;;;23.77;3.83;;;10.10;99.90;;;;;;5004679;28;20022;-50
2024/04/07 01:02:24;;;;;;;23.05;3.90;;;10.10;99.90;;;;;;5004570;28;20030;-49
2024/04/07 01:04:49;;;;;;;16.55;3.15;;;10.10;99.90;;;;;;4989377;28;20058;-47
2024/04/07 01:07:15;;;;;;;21.20;3.60;;;10.10;99.90;;;;;;4989423;28;20029;-46
2024/04/07 01:09:41;;;;;;;23.95;3.47;;;10.10;99.90;;;;;;5004462;28;20038;-46
2024/04/07 01:12:13;;;;;;;27.38;4.47;;;10.10;99.90;;;;;;4988863;28;20073;-42
2024/04/07 01:14:40;;;;;;;23.35;3.67;;;10.00;99.90;;;;;;4988834;28;20152;-47
2024/04/07 01:17:06;;;;;;;20.58;3.97;;;10.00;99.90;;;;;;4990050;28;20042;-49
2024/04/07 01:19:32;;;;;;;26.52;4.32;;;10.10;99.90;;;;;;4989213;28;20094;-47
2024/04/07 01:21:58;;;;;;;21.67;4.22;;;10.10;99.90;;;;;;4989035;28;20295;-48
2024/04/07 01:24:24;;;;;;;24.00;4.38;;;10.10;99.90;;;;;;4989039;28;20085;-49
2024/04/07 01:26:49;;;;;;;19.77;3.75;;;10.10;99.90;;;;;;4988617;28;20085;-47
2024/04/07 01:29:15;;;;;;;25.42;3.83;;;10.10;99.90;;;;;;4989042;28;20035;-48
2024/04/07 01:31:41;;;;;;;19.45;4.25;;;10.10;99.90;;;;;;4988887;28;20022;-48
2024/04/07 01:34:06;;;;;;;21.45;4.03;;;10.10;99.90;;;;;;4988678;28;20384;-49
2024/04/07 01:36:32;;;;;;;15.90;2.95;;;10.10;99.90;;;;;;4988817;28;20031;-49
2024/04/07 01:38:58;;;;;;;23.30;3.67;;;10.10;99.90;;;;;;4988881;28;20041;-49
2024/04/07 01:41:24;;;;;;;21.75;3.60;;;10.10;99.90;;;;;;4989086;28;20086;-47
2024/04/07 01:43:49;;;;;;;29.90;5.15;;;10.10;99.90;;;;;;4988469;28;20030;-49
2024/04/07 01:46:15;;;;;;;12.52;2.78;;;10.10;99.90;;;;;;4988691;28;20050;-49
2024/04/07 01:48:41;;;;;;;16.70;3.22;;;10.20;99.90;;;;;;4988790;28;20038;-45
2024/04/07 01:51:07;;;;;;;24.60;4.30;;;10.20;99.90;;;;;;4988526;28;20047;-48
2024/04/07 01:53:33;;;;;;;19.30;3.67;;;10.30;99.90;;;;;;4988696;28;20129;-47
2024/04/07 01:55:59;;;;;;;25.40;4.00;;;10.30;99.90;;;;;;4988528;28;20030;-45
2024/04/07 01:58:24;;;;;;;30.70;4.80;;;10.30;99.90;;;;;;4988368;28;20034;-46
2024/04/07 02:00:50;;;;;;;12.05;2.47;;;10.30;99.90;;;;;;4988376;28;20042;-49
2024/04/07 02:03:16;;;;;;;18.38;4.75;;;10.30;99.90;;;;;;4987839;28;20042;-47
2024/04/07 02:05:41;;;;;;;20.73;3.75;;;10.40;99.90;;;;;;4987585;28;20034;-50
2024/04/07 02:08:08;;;;;;;21.88;3.90;;;10.30;99.90;;;;;;4988356;28;20094;-49
2024/04/07 02:10:34;;;;;;;26.40;4.45;;;10.30;99.90;;;;;;5003192;28;20102;-49
2024/04/07 02:13:00;;;;;;;27.50;5.50;;;10.40;99.90;;;;;;4988347;28;20073;-48
2024/04/07 02:15:26;;;;;;;30.30;4.57;;;10.40;99.90;;;;;;4988167;28;20031;-49
2024/04/07 02:17:51;;;;;;;24.30;5.32;;;10.40;99.90;;;;;;4987012;28;20042;-48
2024/04/07 02:20:18;;;;;;;23.55;4.32;;;10.50;99.90;;;;;;4987987;28;20144;-49
2024/04/07 02:22:43;;;;;;;27.23;4.57;;;10.50;99.90;;;;;;4986862;28;20031;-49
2024/04/07 02:25:10;;;;;;;24.83;3.95;;;10.60;99.90;;;;;;4988074;28;20310;-48
2024/04/07 02:27:35;;;;;;;25.02;5.25;;;10.60;99.90;;;;;;4988121;28;20043;-49
2024/04/07 02:30:04;;;;;;;25.98;4.13;;;10.70;99.90;;;;;;4987911;28;20058;-49
2024/04/07 02:32:32;;;;;;;28.48;5.88;;;10.70;99.90;;;;;;5002626;28;20030;-49
2024/04/07 02:34:58;;;;;;;29.38;4.97;;;10.70;99.90;;;;;;4987430;28;20035;-46
2024/04/07 02:37:24;;;;;;;28.85;4.35;;;10.70;99.90;;;;;;4986973;28;20231;-49
2024/04/07 02:39:49;;;;;;;23.55;4.65;;;10.70;99.90;;;;;;4987518;28;20031;-47
2024/04/07 02:42:15;;;;;;;24.65;4.80;;;10.70;99.90;;;;;;4987752;28;20208;-49
2024/04/07 02:50:09;;;;;;;28.88;4.43;;;10.80;99.90;;;;;;5000239;28;20049;-49
2024/04/07 02:52:35;;;;;;;29.13;4.50;;;10.90;99.90;;;;;;4987375;28;20030;-47
2024/04/07 02:55:01;;;;;;;29.40;4.88;;;10.90;99.90;;;;;;4987417;28;20343;-49
2024/04/07 02:57:26;;;;;;;18.15;3.58;;;10.90;99.90;;;;;;4987416;28;20038;-48
2024/04/07 02:59:52;;;;;;;25.35;3.80;;;10.90;99.90;;;;;;4987401;28;20054;-47
2024/04/07 03:02:20;;;;;;;25.13;3.97;;;10.90;99.90;;;;;;4986179;28;20050;-49
2024/04/07 03:04:47;;;;;;;23.83;3.90;;;10.90;99.90;;;;;;4987652;28;20156;-49
2024/04/07 03:07:13;;;;;;;25.35;4.72;;;10.90;99.90;;;;;;4986905;28;20063;-49
2024/04/07 03:09:38;;;;;;;13.70;3.60;;;10.80;99.90;;;;;;4987279;28;20031;-49
2024/04/07 03:12:04;;;;;;;12.57;2.40;;;10.70;99.90;;;;;;4986954;28;20074;-47
2024/04/07 03:14:30;;;;;;;9.73;2.65;;;10.20;99.90;;;;;;4987186;28;20038;-46
2024/04/07 03:16:58;;;;;;;16.58;2.72;;;9.80;99.90;;;;;;4986132;28;20184;-45
2024/04/07 03:19:24;;;;;;;12.48;2.90;;;9.80;99.90;;;;;;4987122;28;20031;-45
2024/04/07 03:21:49;;;;;;;24.02;5.10;;;10.00;99.90;;;;;;4986902;28;20085;-44
2024/04/07 03:24:15;;;;;;;19.58;4.07;;;10.10;99.90;;;;;;4986792;28;20031;-45
2024/04/07 03:26:40;;;;;;;31.30;5.28;;;10.20;99.90;;;;;;4985935;28;20275;-48
2024/04/07 03:29:06;;;;;;;30.27;5.97;;;10.30;99.90;;;;;;4986945;28;20026;-48
2024/04/07 03:31:32;;;;;;;23.30;4.65;;;10.30;99.90;;;;;;4987018;28;20063;-45
2024/04/07 03:33:58;;;;;;;27.27;4.90;;;10.30;99.90;;;;;;4986515;28;20030;-47
2024/04/07 03:36:23;;;;;;;26.27;4.28;;;10.20;99.90;;;;;;4986752;28;20042;-48
2024/04/07 03:38:49;;;;;;;28.83;4.93;;;10.30;99.90;;;;;;4986416;28;20045;-45
2024/04/07 03:41:14;;;;;;;26.77;5.40;;;10.10;99.90;;;;;;4985771;28;20058;-45
2024/04/07 03:43:40;;;;;;;34.45;5.05;;;10.00;99.90;;;;;;4986608;28;20079;-49
2024/04/07 03:46:06;;;;;;;16.45;3.85;;;10.00;99.90;;;;;;4986439;28;20034;-48
2024/04/07 03:48:32;;;;;;;14.25;2.80;;;9.70;99.90;;;;;;4986652;28;20038;-49
2024/04/07 03:50:57;;;;;;;6.13;1.50;;;9.30;99.90;;;;;;4986476;28;20065;-49
2024/04/07 03:53:27;;;;;;;6.13;1.42;;;8.70;99.90;;;;;;4986686;28;20180;-48
2024/04/07 03:55:52;;;;;;;10.35;3.08;;;8.60;99.90;;;;;;4986304;28;20046;-49
2024/04/07 03:58:18;;;;;;;12.30;2.60;;;8.70;99.90;;;;;;4986398;28;20042;-48
2024/04/07 04:00:44;;;;;;;14.77;2.60;;;8.70;99.90;;;;;;4986418;28;20042;-49
2024/04/07 04:03:09;;;;;;;16.15;2.58;;;8.70;99.90;;;;;;5001592;28;20027;-50
2024/04/07 04:05:36;;;;;;;12.05;2.90;;;8.70;99.90;;;;;;4986557;28;20101;-50
2024/04/07 04:08:01;;;;;;;14.07;2.75;;;8.90;99.90;;;;;;4986268;28;20023;-49
2024/04/07 04:10:27;;;;;;;23.20;3.22;;;9.10;99.90;;;;;;4986475;28;20141;-50
2024/04/07 04:12:52;;;;;;;23.27;3.47;;;9.40;99.90;;;;;;4986055;28;20181;-50
2024/04/07 04:15:18;;;;;;;21.38;3.20;;;9.60;99.90;;;;;;4986410;28;20141;-46
2024/04/07 04:17:44;;;;;;;12.23;2.83;;;9.70;99.90;;;;;;4986055;28;20085;-50
2024/04/07 04:20:09;;;;;;;12.38;2.47;;;9.70;99.90;;;;;;4986341;28;20035;-49
2024/04/07 04:22:35;;;;;;;11.32;2.17;;;9.70;99.90;;;;;;4986147;28;20110;-50
2024/04/07 04:25:01;;;;;;;16.67;2.58;;;9.70;99.90;;;;;;4986283;28;20018;-49
2024/04/07 04:27:26;;;;;;;13.85;2.25;;;9.80;99.90;;;;;;4986643;28;20054;-48
2024/04/07 04:29:52;;;;;;;12.57;2.50;;;9.80;99.90;;;;;;4989807;28;20062;-46
2024/04/07 04:32:17;;;;;;;13.07;2.00;;;9.70;99.90;;;;;;4989923;28;20077;-48
2024/04/07 04:34:43;;;;;;;18.42;4.45;;;9.80;99.90;;;;;;4990047;28;20030;-45
2024/04/07 04:37:09;;;;;;;8.63;1.60;;;9.80;99.90;;;;;;4989962;28;20296;-48
2024/04/07 04:39:34;;;;;;;15.35;2.20;;;9.80;99.90;;;;;;4990043;28;20350;-47
2024/04/07 04:42:00;;;;;;;9.18;1.80;;;9.80;99.90;;;;;;4989853;28;20330;-46
2024/04/07 04:44:26;;;;;;;12.52;2.28;;;9.80;99.90;;;;;;4988800;28;20098;-48
2024/04/07 04:46:51;;;;;;;12.75;2.00;;;9.90;99.90;;;;;;4989926;28;20022;-46
2024/04/07 04:49:17;;;;;;;11.18;1.63;;;9.90;99.90;;;;;;4988638;28;20158;-45
2024/04/07 04:51:43;;;;;;;8.38;1.88;;;10.00;99.90;;;;;;4989384;28;20105;-45
2024/04/07 04:54:09;;;;;;;17.67;2.45;;;10.00;99.90;;;;;;4989476;28;20027;-47
2024/04/07 04:56:35;;;;;;;12.90;2.03;;;10.10;99.90;;;;;;5004658;28;20062;-46
2024/04/07 04:59:02;;;;;;;15.50;2.55;;;10.20;99.90;;;;;;4989157;28;20141;-48
2024/04/07 05:01:28;;;;;;;6.70;1.42;;;10.30;99.90;;;;;;4989523;28;20026;-48
2024/04/07 05:03:54;;;;;;;9.60;1.65;;;10.20;99.90;;;;;;5004441;28;20058;-48
2024/04/07 05:06:20;;;;;;;9.98;2.10;;;10.20;99.90;;;;;;4989438;28;20330;-48
2024/04/07 05:08:46;;;;;;;16.27;2.38;;;10.20;99.90;;;;;;4989407;28;20019;-48
2024/04/07 05:11:11;;;;;;;12.00;2.45;;;10.10;99.90;;;;;;4989377;28;20031;-48
2024/04/07 05:13:37;;;;;;;13.20;2.30;;;10.10;99.90;;;;;;4989149;28;20041;-48
2024/04/07 05:16:03;;;;;;;15.82;2.78;;;10.10;99.90;;;;;;5004252;28;20058;-48
2024/04/07 05:18:29;;;;;;;16.52;2.72;;;10.00;99.90;;;;;;4989176;28;20105;-48
2024/04/07 05:20:55;;;;;;;21.00;3.65;;;9.90;99.90;;;;;;4989182;28;20054;-49
2024/04/07 05:23:24;;;;;;;11.00;2.35;;;9.90;99.90;;;;;;4989050;28;20038;-48
2024/04/07 05:25:51;;;;;;;19.98;2.60;;;9.80;99.90;;;;;;5004394;28;20276;-47
2024/04/07 05:28:16;;;;;;;18.20;3.28;;;9.80;99.90;;;;;;4989000;28;20257;-49
2024/04/07 05:30:42;;;;;;;19.25;3.35;;;9.80;99.90;;;;;;4988899;28;20031;-49
2024/04/07 05:33:08;;;;;;;10.82;2.35;;;9.80;99.90;;;;;;4988941;28;20030;-49
2024/04/07 05:35:34;;;;;;;18.05;3.97;;;9.80;99.90;;;;;;4988950;28;20022;-49
2024/04/07 05:38:00;;;;;;;21.67;3.03;;;9.90;99.90;;;;;;4988745;28;20085;-49
2024/04/07 05:40:25;;;;;;;24.88;3.92;;;9.90;99.90;;;;;;4987614;28;20046;-49
2024/04/07 05:42:52;;;;;;;24.90;3.78;;;10.00;99.90;;;;;;4988600;28;20031;-49
2024/04/07 05:45:17;;;;;;;24.77;3.35;;;10.00;99.90;;;;;;4988953;28;20038;-49
2024/04/07 05:47:49;;;;;;;13.43;2.50;;;10.00;99.90;;;;;;4988216;28;20284;-49
2024/04/07 05:50:15;;;;;;;12.73;2.63;;;10.00;99.90;;;;;;4988340;28;20110;-49
2024/04/07 05:52:41;;;;;;;16.05;3.60;;;10.10;99.90;;;;;;4987357;28;20042;-48
2024/04/07 05:55:08;;;;;;;23.05;3.42;;;10.20;99.90;;;;;;5003686;28;20094;-47
2024/04/07 05:57:37;;;;;;;11.35;3.15;;;10.20;99.90;;;;;;4988569;28;20081;-50
2024/04/07 06:00:06;;;;;;;26.30;4.00;;;10.30;99.90;;;;;;4988332;28;20062;-47
2024/04/07 06:02:31;;;;;;;23.70;3.83;;;10.30;99.90;;;;;;4988030;28;20174;-49
2024/04/07 06:04:57;;;;;;;26.48;4.32;;;10.40;99.90;;;;;;4988081;28;20031;-50
2024/04/07 06:07:23;;;;;;;22.67;3.60;;;10.40;99.90;;;;;;4988150;28;20035;-48
2024/04/07 06:09:48;;;;;;;22.58;3.58;;;10.40;99.90;;;;;;4987663;28;20098;-47
2024/04/07 06:12:14;;;;;;;16.30;3.25;;;10.50;99.90;;;;;;4987920;28;20297;-49
2024/04/07 06:14:40;;;;;;;15.07;3.13;;;10.50;99.90;;;;;;4988047;28;20053;-49
2024/04/07 06:17:06;;;;;;;12.90;3.28;;;10.50;99.90;;;;;;4988111;28;20086;-50
2024/04/07 06:19:31;;;;;;;25.23;4.10;;;10.60;99.90;;;;;;4987651;28;20045;-50
2024/04/07 06:21:57;;;;;;;19.67;3.72;;;10.60;99.90;;;;;;4986857;28;20101;-50
2024/04/07 06:24:22;;;;;;;18.95;3.70;;;10.60;99.90;;;;;;4987871;28;20127;-50
2024/04/07 06:26:48;;;;;;;19.02;3.92;;;10.70;99.90;;;;;;4987934;28;20038;-50
2024/04/07 06:29:14;;;;;;;22.33;4.28;;;10.70;99.90;;;;;;4987883;28;20031;-50
2024/04/07 06:31:39;;;;;;;22.85;4.03;;;10.60;99.90;;;;;;4987905;28;20082;-50
2024/04/07 06:34:05;;;;;;;19.52;3.33;;;10.70;99.90;;;;;;4987435;28;20060;-49
2024/04/07 06:36:31;;;;;;;22.83;3.53;;;10.70;99.90;;;;;;4987276;28;20034;-50
2024/04/07 06:38:56;;;;;;;32.30;3.80;;;10.70;99.90;;;;;;4987605;28;20029;-49
2024/04/07 06:41:22;;;;;;;25.33;3.63;;;10.70;99.90;;;;;;4987568;28;20288;-49
2024/04/07 06:43:47;;;;;;;19.58;3.78;;;10.70;99.90;;;;;;4987372;28;20053;-49
2024/04/07 06:46:13;;;;;;;21.73;4.10;;;10.70;99.90;;;;;;4987510;28;20203;-49
2024/04/07 06:48:39;;;;;;;23.88;4.00;;;10.70;99.90;;;;;;4987489;28;20097;-50
2024/04/07 06:51:04;;;;;;;23.73;3.78;;;10.70;99.90;;;;;;4986733;28;20066;-48
2024/04/07 06:53:30;;;;;;;22.23;3.92;;;10.70;99.90;;;;;;4987492;28;20026;-50
2024/04/07 06:55:56;;;;;;;17.05;3.38;;;10.80;99.90;;;;;;4987079;28;20034;-50
2024/04/07 06:58:21;;;;;;;20.23;4.00;;;10.80;99.90;;;;;;4987251;28;20102;-50
2024/04/07 07:00:47;;;;;;;15.10;2.70;;;10.80;99.90;;;;;;4987229;28;20179;-49
2024/04/07 07:03:12;;;;;;;13.82;2.50;;;10.80;99.90;;;;;;4987095;28;20097;-50
2024/04/07 07:05:38;;;;;;;22.33;4.28;;;10.80;99.90;;;;;;4987155;28;20240;-50
2024/04/07 07:08:05;;;;;;;25.48;5.72;;;10.80;99.90;;;;;;4987046;28;20295;-50
2024/04/07 07:10:30;;;;;;;25.13;4.22;;;10.80;99.90;;;;;;4986912;28;20049;-50
2024/04/07 07:12:56;;;;;;;27.27;5.03;;;10.80;99.90;;;;;;4987055;28;20054;-50
2024/04/07 07:15:21;;;;;;;19.27;3.60;;;10.80;99.90;;;;;;4987091;28;20299;-48
2024/04/07 07:17:47;;;;;;;36.50;5.60;;;10.80;99.90;;;;;;4986974;28;20029;-50
2024/04/07 07:20:13;;;;;;;23.27;4.47;;;10.90;99.90;;;;;;4987029;28;20272;-49
2024/04/07 07:22:38;;;;;;;16.45;2.72;;;11.00;99.90;;;;;;4986829;28;20027;-50
2024/04/07 07:25:04;;;;;;;26.45;4.78;;;11.00;99.90;;;;;;4987014;28;20034;-50
2024/04/07 07:27:30;;;;;;;19.60;4.13;;;11.20;99.90;;;;;;4986379;28;20026;-50
2024/04/07 07:29:55;;;;;;;19.52;3.42;;;11.20;99.90;;;;;;4986555;28;20089;-50
2024/04/07 07:32:21;;;;;;;21.98;3.92;;;11.20;99.90;;;;;;4986771;28;20272;-50
2024/04/07 07:34:47;;;;;;;18.90;3.40;;;11.20;99.90;;;;;;4985614;28;20284;-50
2024/04/07 07:37:12;;;;;;;16.30;3.13;;;11.30;99.90;;;;;;4985713;28;20027;-50
2024/04/07 07:39:38;;;;;;;20.65;3.75;;;11.30;99.90;;;;;;4986236;28;20026;-50
2024/04/07 07:42:05;;;;;;;15.77;3.28;;;11.30;99.90;;;;;;4986376;28;20073;-50
2024/04/07 07:44:30;;;;;;;22.63;3.97;;;11.40;99.90;;;;;;4986483;28;20078;-50
2024/04/07 07:46:56;;;;;;;14.20;3.15;;;11.40;99.90;;;;;;4986632;28;20050;-50
2024/04/07 07:49:22;;;;;;;24.50;4.03;;;11.30;99.90;;;;;;5001477;28;20066;-50
2024/04/07 07:51:47;;;;;;;27.38;4.10;;;11.30;99.90;;;;;;4986196;28;20086;-49
2024/04/07 07:54:13;;;;;;;21.67;3.17;;;11.20;99.90;;;;;;4986510;28;20339;-50
2024/04/07 07:56:39;;;;;;;28.23;4.18;;;11.10;99.90;;;;;;4985998;28;20038;-47
2024/04/07 07:59:04;;;;;;;24.27;3.53;;;11.10;99.90;;;;;;4985121;28;20053;-49
2024/04/07 08:01:30;;;;;;;21.95;4.22;;;11.00;99.90;;;;;;5001489;28;20322;-47
2024/04/07 08:03:56;;;;;;;17.52;3.33;;;11.10;99.90;;;;;;4989298;28;20035;-46
2024/04/07 08:06:21;;;;;;;16.38;3.53;;;11.10;99.90;;;;;;4990338;28;20022;-49
2024/04/07 08:08:47;;;;;;;22.48;4.22;;;11.00;99.90;;;;;;4990359;28;20023;-50
2024/04/07 08:11:13;;;;;;;28.65;3.88;;;11.10;99.90;;;;;;4989721;28;20039;-51
2024/04/07 08:13:38;;;;;;;20.45;3.92;;;11.10;99.90;;;;;;4990383;28;20077;-50
2024/04/07 08:16:04;;;;;;;28.95;4.75;;;11.10;99.90;;;;;;4990198;28;20031;-50
2024/04/07 08:18:30;;;;;;;21.02;3.33;;;11.20;99.90;;;;;;4990325;28;20034;-50
2024/04/07 08:20:56;;;;;;;17.90;4.05;;;11.20;99.90;;;;;;4990262;28;20057;-47
2024/04/07 08:23:21;;;;;;;10.70;2.50;;;11.20;99.90;;;;;;4990081;28;20031;-50
2024/04/07 08:25:47;;;;;;;26.65;3.67;;;11.20;99.90;;;;;;5005109;28;20041;-50
2024/04/07 08:28:13;;;;;;;16.05;3.30;;;11.10;99.90;;;;;;5004928;28;20037;-51
2024/04/07 08:30:38;;;;;;;19.98;3.55;;;11.30;99.90;;;;;;4990068;28;20082;-50
2024/04/07 08:33:04;;;;;;;21.27;3.63;;;11.50;99.90;;;;;;4989994;28;20033;-48
2024/04/07 08:35:30;;;;;;;18.67;3.75;;;11.60;99.90;;;;;;4989946;28;20292;-51
2024/04/07 08:37:55;;;;;;;18.17;4.15;;;11.50;99.90;;;;;;4989950;28;20098;-49
2024/04/07 08:40:21;;;;;;;19.25;3.58;;;11.50;99.90;;;;;;4989953;28;20227;-50
2024/04/07 08:42:48;;;;;;;15.18;3.53;;;11.50;99.90;;;;;;4989296;28;20034;-48
2024/04/07 08:45:14;;;;;;;25.42;4.50;;;11.50;99.90;;;;;;4989822;28;20041;-47
2024/04/07 08:47:40;;;;;;;25.70;4.00;;;11.50;99.90;;;;;;5004670;28;20026;-51
2024/04/07 08:50:07;;;;;;;20.85;3.42;;;11.60;99.90;;;;;;5004919;28;20070;-51
2024/04/07 08:52:32;;;;;;;24.48;3.47;;;11.60;99.90;;;;;;4989514;28;20037;-48
2024/04/07 08:54:58;;;;;;;12.32;2.92;;;11.70;99.90;;;;;;4989496;28;20027;-50
2024/04/07 08:57:24;;;;;;;13.82;3.08;;;11.90;99.90;;;;;;4989597;28;20284;-51
2024/04/07 08:59:52;;;;;;;17.15;3.95;;;11.80;99.90;;;;;;4989601;28;20034;-50
2024/04/07 09:02:18;;;;;;;28.73;5.05;;;11.80;99.90;;;;;;4989043;28;20031;-49
2024/04/07 09:04:44;;;;;;;26.48;3.70;;;11.70;99.90;;;;;;4989276;28;20030;-50
2024/04/07 09:07:12;;;;;;;23.45;4.72;;;11.70;99.90;;;;;;4989338;28;20054;-51
2024/04/07 09:09:38;;;;;;;25.77;4.80;;;11.60;99.90;;;;;;5004139;28;20026;-47
2024/04/07 09:12:05;;;;;;;25.17;4.57;;;11.60;99.90;;;;;;4989222;28;20031;-46
2024/04/07 09:14:33;;;;;;;18.20;3.63;;;11.60;99.90;;;;;;4988951;28;20037;-46
2024/04/07 09:17:08;;;;;;;26.88;4.53;;;11.60;99.90;;;;;;4989135;28;20019;-50
2024/04/07 09:19:35;;;;;;;25.30;4.40;;;11.70;99.90;;;;;;4988598;28;20022;-50
2024/04/07 09:22:07;;;;;;;18.55;3.20;;;11.90;99.90;;;;;;4988889;28;20026;-51
2024/04/07 09:24:34;;;;;;;19.35;3.80;;;12.00;99.90;;;;;;4987925;28;20206;-47
2024/04/07 09:27:12;;;;;;;24.65;4.28;;;12.10;99.90;;;;;;4989003;28;20077;-49
2024/04/07 09:29:40;;;;;;;22.52;3.85;;;12.50;99.90;;;;;;4987975;28;20023;-50
2024/04/07 09:32:05;;;;;;;18.60;3.85;;;12.70;99.90;;;;;;4988490;28;20054;-50
2024/04/07 09:34:35;;;;;;;18.75;4.07;;;12.80;99.90;;;;;;4987613;28;20023;-51
2024/04/07 09:37:04;;;;;;;14.10;3.20;;;13.10;99.90;;;;;;5003403;28;20098;-50
2024/04/07 09:39:29;;;;;;;16.02;3.50;;;13.50;99.90;;;;;;4988726;28;20054;-50
2024/04/07 09:41:57;;;;;;;19.38;4.15;;;13.50;99.90;;;;;;4988499;28;20050;-51
2024/04/07 09:44:23;;;;;;;21.60;4.95;;;14.00;99.90;;;;;;4988618;28;20015;-49
2024/04/07 09:46:48;;;;;;;15.57;4.28;;;14.40;99.90;;;;;;5003665;28;20046;-50
2024/04/07 09:49:15;;;;;;;22.08;4.32;;;14.80;99.90;;;;;;5003756;28;20042;-50
2024/04/07 09:51:42;;;;;;;19.77;4.03;;;14.60;99.90;;;;;;5003522;28;20027;-50
2024/04/07 09:54:29;;;;;;;17.45;3.08;;;14.20;99.90;;;;;;4988379;28;20034;-51
2024/04/07 09:56:54;;;;;;;21.75;3.85;;;14.00;99.90;;;;;;4988577;28;20069;-52
2024/04/07 09:59:20;;;;;;;20.73;4.47;;;14.50;99.90;;;;;;4988393;28;20035;-48
2024/04/07 10:01:46;;;;;;;21.98;4.05;;;14.40;99.90;;;;;;4987968;28;20085;-50
2024/04/07 10:04:11;;;;;;;18.40;3.58;;;14.00;99.90;;;;;;5003067;28;20058;-52
2024/04/07 10:06:37;;;;;;;20.60;3.88;;;13.50;99.90;;;;;;5003459;28;20105;-50
2024/04/07 10:09:03;;;;;;;23.15;4.03;;;13.40;99.90;;;;;;5003555;28;20019;-52
2024/04/07 10:11:29;;;;;;;23.83;4.18;;;13.50;99.90;;;;;;4988184;28;20050;-52
2024/04/07 10:13:54;;;;;;;30.83;4.68;;;13.70;99.90;;;;;;4987906;28;20030;-51
2024/04/07 10:16:23;;;;;;;24.45;4.90;;;14.50;99.90;;;;;;4987489;28;20306;-51
2024/04/07 10:18:48;;;;;;;21.38;4.53;;;13.90;99.90;;;;;;5002910;28;20054;-51
2024/04/07 10:21:15;;;;;;;23.20;4.78;;;13.70;99.90;;;;;;5002711;28;20048;-51
2024/04/07 10:23:42;;;;;;;27.55;4.50;;;13.40;99.90;;;;;;5002610;28;20081;-48
2024/04/07 10:26:08;;;;;;;16.65;4.28;;;13.60;99.90;;;;;;4987248;28;20023;-51
2024/04/07 10:28:46;;;;;;;23.60;3.85;;;13.30;99.90;;;;;;4987725;28;20034;-51
2024/04/07 10:31:12;;;;;;;23.55;5.43;;;13.50;99.90;;;;;;4987650;28;20050;-51
2024/04/07 10:33:38;;;;;;;29.33;6.25;;;13.60;99.90;;;;;;4987636;28;20031;-51
2024/04/07 10:36:06;;;;;;;18.73;4.60;;;13.90;99.90;;;;;;4987562;28;20276;-51
2024/04/07 10:38:52;;;;;;;24.88;5.45;;;14.00;99.90;;;;;;4987336;28;20023;-52
2024/04/07 10:41:24;;;;;;;16.00;4.32;;;14.60;99.90;;;;;;4987541;28;20034;-52
2024/04/07 10:43:50;;;;;;;25.15;6.07;;;15.10;99.90;;;;;;4987264;28;20097;-51
2024/04/07 10:46:17;;;;;;;27.63;5.32;;;15.40;99.90;;;;;;4987287;28;20023;-47
2024/04/07 10:48:43;;;;;;;21.77;5.88;;;15.80;99.90;;;;;;4987359;28;20074;-52
2024/04/07 10:51:16;;;;;;;23.67;7.10;;;16.20;99.90;;;;;;4986957;28;20053;-53
2024/04/07 10:54:06;;;;;;;28.55;6.63;;;16.30;99.90;;;;;;4986537;28;20031;-52
2024/04/07 10:56:32;;;;;;;24.38;7.28;;;16.50;99.90;;;;;;4989503;28;20340;-51
2024/04/07 10:58:57;;;;;;;15.32;3.90;;;15.00;99.90;;;;;;4987009;28;20026;-51
2024/04/07 11:01:24;;;;;;;19.60;4.30;;;15.00;99.90;;;;;;4986125;28;20312;-52
2024/04/07 11:03:51;;;;;;;19.65;3.88;;;14.70;99.90;;;;;;4986894;28;20034;-51
2024/04/07 11:06:16;;;;;;;23.95;4.75;;;14.70;99.90;;;;;;4986769;28;20073;-49
2024/04/07 11:08:42;;;;;;;17.50;4.07;;;15.10;99.90;;;;;;4986988;28;20074;-52
2024/04/07 11:11:09;;;;;;;21.85;3.90;;;14.50;99.90;;;;;;4986912;28;20040;-52
2024/04/07 11:13:35;;;;;;;26.40;5.75;;;15.10;99.90;;;;;;4987107;28;20039;-51
2024/04/07 11:16:01;;;;;;;29.15;6.63;;;14.60;99.90;;;;;;4986963;28;20097;-52
2024/04/07 11:18:26;;;;;;;20.38;4.45;;;14.30;99.90;;;;;;4986381;28;20235;-49
2024/04/07 11:20:59;;;;;;;35.83;6.15;;;13.80;99.90;;;;;;4986846;28;20041;-52
2024/04/07 11:23:25;;;;;;;18.35;4.43;;;13.60;99.90;;;;;;4986877;28;20283;-50
2024/04/07 11:25:52;;;;;;;17.20;4.10;;;13.60;99.90;;;;;;4986533;28;20050;-53
2024/04/07 11:28:18;;;;;;;20.27;4.40;;;13.60;99.90;;;;;;4986610;28;20050;-51
2024/04/07 11:30:51;;;;;;;22.35;4.47;;;13.80;99.90;;;;;;5001733;28;20094;-48
2024/04/07 11:33:16;;;;;;;20.27;4.13;;;14.40;99.90;;;;;;4986696;28;20039;-49
2024/04/07 11:35:42;;;;;;;27.65;4.88;;;14.30;99.90;;;;;;4986174;28;20154;-49
2024/04/07 11:38:09;;;;;;;21.80;4.10;;;15.00;99.90;;;;;;4985360;28;20109;-50
2024/04/07 11:40:34;;;;;;;29.63;5.55;;;14.60;99.90;;;;;;4986453;28;20031;-50
2024/04/07 11:43:00;;;;;;;24.55;4.68;;;14.20;99.90;;;;;;4986403;28;20194;-49
2024/04/07 11:45:26;;;;;;;15.45;3.65;;;14.00;99.90;;;;;;4986609;28;20031;-49
2024/04/07 11:47:52;;;;;;;31.55;5.30;;;13.80;99.90;;;;;;5001517;28;20171;-47
2024/04/07 11:50:17;;;;;;;12.85;3.88;;;13.70;99.90;;;;;;5001336;28;20055;-46
2024/04/07 11:52:43;;;;;;;20.80;4.10;;;13.50;99.90;;;;;;5001382;28;20044;-50
2024/04/07 11:55:09;;;;;;;22.23;4.50;;;13.30;99.90;;;;;;4986184;28;20331;-44
2024/04/07 11:57:34;;;;;;;21.52;3.55;;;12.70;99.90;;;;;;4985863;28;20207;-45
2024/04/07 12:00:00;;;;;;;35.95;5.72;;;11.10;99.90;;;;;;5001575;28;20241;-45
2024/04/07 12:02:26;;;;;;;37.95;5.07;;;11.60;99.90;;;;;;4985949;28;20306;-47
2024/04/07 12:04:52;;;;;;;24.50;4.13;;;11.80;99.90;;;;;;4985599;28;20070;-47
2024/04/07 12:07:17;;;;;;;30.40;4.30;;;12.10;99.90;;;;;;4986298;28;20034;-48
2024/04/07 12:09:43;;;;;;;26.17;5.68;;;12.40;99.90;;;;;;4985261;28;20027;-47
2024/04/07 12:12:11;;;;;;;18.70;4.15;;;13.30;99.90;;;;;;5001155;28;20031;-45
2024/04/07 12:14:37;;;;;;;28.35;5.10;;;13.30;99.90;;;;;;4985614;28;20280;-48
2024/04/07 12:17:04;;;;;;;20.65;4.53;;;13.20;99.90;;;;;;4986073;28;20054;-48
2024/04/07 12:19:30;;;;;;;17.45;4.65;;;13.10;99.90;;;;;;4986207;28;20221;-48
2024/04/07 12:21:57;;;;;;;24.77;5.15;;;13.20;99.90;;;;;;4985813;28;20031;-48
2024/04/07 12:24:22;;;;;;;21.02;4.55;;;13.20;99.90;;;;;;4986050;28;20279;-49
2024/04/07 12:26:50;;;;;;;22.33;5.38;;;12.70;99.90;;;;;;5001332;28;20015;-49
2024/04/07 12:29:15;;;;;;;20.00;3.67;;;12.70;99.90;;;;;;5000795;28;20192;-49
2024/04/07 12:31:41;;;;;;;17.42;3.50;;;12.20;99.90;;;;;;4985468;28;20038;-46
2024/04/07 12:34:07;;;;;;;19.58;3.10;;;11.90;99.90;;;;;;4985951;28;20049;-49
2024/04/07 12:36:33;;;;;;;26.27;4.72;;;12.20;99.90;;;;;;4985585;28;20031;-46
2024/04/07 12:39:05;;;;;;;16.85;3.45;;;12.30;99.90;;;;;;4986070;28;20089;-48